Iver Bright — ZDKU4 — position and weather

sailwx.info

Track history (hours):
 
Tides and Currents Weather Stations Pressure Air Temp Water Temp Dewpoint Dewpoint Depression Visibility Wind Speed Wind Dir Waves Ship Positions

Iver Bright

Last reported at 2015-Aug-03 04:18 UTC. Time now 2015-Aug-05 02:19 UTC.
Position N 37°13' E 015°12'.

Length 111 m; draft 5.3 m.

Type: Tanker. MMSI: 236111811.

Date/timePositionNaut miles runAvg speedWind from/ knotsBaromVisibWave heightAir tempDewpointWater temp
2015-Aug-03 04:18N 37°13' E 015°12'0 0.0
2015-Aug-02 13:33N 37°14' E 015°12'7 0.2
2015-Aug-01 04:33N 37°11' E 015°20'10 7.8
2015-Aug-01 03:19N 37°02' E 015°26'7 9.1
2015-Aug-01 02:34N 36°56' E 015°31'10 8.4
2015-Aug-01 01:21N 36°46' E 015°32'7 8.5
2015-Aug-01 00:33N 36°40' E 015°28'8 8.4
2015-Jul-31 23:33N 36°34' E 015°21'11 9.1
2015-Jul-31 22:21N 36°31' E 015°08'7 9.1
2015-Jul-31 21:33N 36°29' E 014°59'9 9.1
2015-Jul-31 20:33N 36°25' E 014°48'9 9.2
2015-Jul-31 19:33N 36°25' E 014°37'9 9.3
2015-Jul-31 18:34N 36°28' E 014°26'9 9.3
2015-Jul-31 17:33N 36°30' E 014°15'9 9.3
2015-Jul-31 16:33N 36°33' E 014°04'9 9.3
2015-Jul-31 15:33N 36°36' E 013°53'10 9.8
2015-Jul-31 14:33N 36°39' E 013°41'1111.6
2015-Jul-31 13:33N 36°42' E 013°28'9 9.4
2015-Jul-31 12:33N 36°45' E 013°16'9 9.3
2015-Jul-31 11:33N 36°47' E 013°05'9 9.1
2015-Jul-31 10:33N 36°51' E 012°55'9 9.0
2015-Jul-31 09:34N 36°53' E 012°44'9 8.8
2015-Jul-31 08:33N 36°56' E 012°33'9 8.9
2015-Jul-31 07:33N 36°59' E 012°23'8 8.4
2015-Jul-31 06:34N 37°01' E 012°13'8 8.3
2015-Jul-31 05:34N 37°04' E 012°03'8 8.3
2015-Jul-31 04:34N 37°06' E 011°53'8 8.3
2015-Jul-31 03:33N 37°09' E 011°43'9 8.5
2015-Jul-31 02:33N 37°12' E 011°33'9 8.6
2015-Jul-31 01:33N 37°16' E 011°23'9 9.4
2015-Jul-31 00:33N 37°21' E 011°13'10 9.6
2015-Jul-30 23:33N 37°25' E 011°02'10 9.9
2015-Jul-30 22:33N 37°28' E 010°51'1010.1
2015-Jul-30 21:34N 37°32' E 010°39'10 9.9
2015-Jul-30 20:34N 37°34' E 010°27'10 9.7
2015-Jul-30 19:34N 37°34' E 010°14'9 9.4
2015-Jul-30 18:33N 37°34' E 010°03'9 9.3
2015-Jul-30 17:33N 37°32' E 009°51'9 9.1
2015-Jul-30 16:33N 37°29' E 009°40'9 9.4
2015-Jul-30 15:33N 37°26' E 009°29'1212.0
2015-Jul-30 14:33N 37°23' E 009°14'1212.0
2015-Jul-30 13:33N 37°19' E 008°60'1211.6
2015-Jul-30 12:33N 37°18' E 008°45'1111.4
2015-Jul-30 11:33N 37°18' E 008°31'1211.7
2015-Jul-30 10:33N 37°18' E 008°16'  
2015-Jul-28 00:26N 36°50' E 005°50'0 0.0
2015-Jul-27 21:33N 36°50' E 005°50'0 0.0
2015-Jul-27 20:32N 36°50' E 005°50'0 0.0
2015-Jul-27 19:32N 36°50' E 005°50'0 0.0
2015-Jul-27 18:11N 36°50' E 005°50'0 0.0
2015-Jul-27 17:29N 36°50' E 005°50'0 0.0
2015-Jul-27 16:14N 36°50' E 005°50'0 0.0
2015-Jul-27 14:32N 36°50' E 005°50'1 0.6
2015-Jul-27 13:33N 36°50' E 005°50'1110.0
2015-Jul-27 12:28N 36°58' E 005°41'2310.8
2015-Jul-27 10:18N 37°02' E 005°12'2111.5
2015-Jul-27 08:30N 37°02' E 004°47'4912.3
2015-Jul-27 04:29N 37°02' E 003°45'1212.5
2015-Jul-27 03:32N 37°02' E 003°30'1212.1
2015-Jul-27 02:33N 37°02' E 003°15'1212.1
2015-Jul-27 01:32N 37°01' E 002°60'1212.0
2015-Jul-27 00:33N 36°59' E 002°45'1212.0
2015-Jul-26 23:31N 36°56' E 002°30'1111.8
2015-Jul-26 22:33N 36°54' E 002°16'1211.9
2015-Jul-26 21:33N 36°52' E 002°02'1211.5
2015-Jul-26 20:33N 36°50' E 001°47'1111.4
2015-Jul-26 19:33N 36°48' E 001°33'1110.8
2015-Jul-26 18:32N 36°46' E 001°20'1111.2
2015-Jul-26 17:33N 36°44' E 001°06'1211.5
2015-Jul-26 16:33N 36°42' E 000°52'1211.6
2015-Jul-26 15:33N 36°39' E 000°38'1111.4
2015-Jul-26 14:33N 36°37' E 000°24'1711.4
2015-Jul-26 13:06N 36°34' E 000°04'38311.8
2015-Jul-25 04:33N 36°13' W 007°52'2711.5
2015-Jul-25 02:13N 36°19' W 008°24'811.7
2015-Jul-25 01:30N 36°21' W 008°34'1111.9
2015-Jul-25 00:33N 36°24' W 008°48'1211.8
2015-Jul-24 23:33N 36°27' W 009°02'1411.4
2015-Jul-24 22:17N 36°30' W 009°20'1011.6
2015-Jul-24 21:23N 36°37' W 009°29'1211.6
2015-Jul-24 20:22N 36°46' W 009°38'1011.6
2015-Jul-24 19:32N 36°56' W 009°41'1212.0
2015-Jul-24 18:33N 37°07' W 009°44'1312.0
2015-Jul-24 17:31N 37°19' W 009°48'1212.2
2015-Jul-24 16:32N 37°31' W 009°51'1211.9
2015-Jul-24 15:33N 37°42' W 009°55'1511.9
2015-Jul-24 14:18N 37°57' W 009°59'912.0
2015-Jul-24 13:31N 38°06' W 010°01'1212.0
2015-Jul-24 12:33N 38°18' W 010°05'1211.9
2015-Jul-24 11:33N 38°29' W 010°08'1211.9
2015-Jul-24 10:33N 38°41' W 010°11'1212.1
2015-Jul-24 09:33N 38°53' W 010°12'1212.3
2015-Jul-24 08:33N 39°05' W 010°12'1211.8
2015-Jul-24 07:33N 39°17' W 010°12'  
Track history (hours):
 
Tides and Currents Weather Stations Pressure Air Temp Water Temp Dewpoint Dewpoint Depression Visibility Wind Speed Wind Dir Waves Ship Positions

Iver Bright

Last reported at 2015-Aug-03 04:18 UTC. Time now 2015-Aug-05 02:19 UTC.
Position N 37°13' E 015°12'.

Length 111 m; draft 5.3 m.

Type: Tanker. MMSI: 236111811.

Date/timePositionNaut miles runAvg speedWind from/ knotsBaromVisibWave heightAir tempDewpointWater temp
2015-Aug-03 04:18N 37°13' E 015°12'0 0.0
2015-Aug-02 13:33N 37°14' E 015°12'7 0.2
2015-Aug-01 04:33N 37°11' E 015°20'10 7.8
2015-Aug-01 03:19N 37°02' E 015°26'7 9.1
2015-Aug-01 02:34N 36°56' E 015°31'10 8.4
2015-Aug-01 01:21N 36°46' E 015°32'7 8.5
2015-Aug-01 00:33N 36°40' E 015°28'8 8.4
2015-Jul-31 23:33N 36°34' E 015°21'11 9.1
2015-Jul-31 22:21N 36°31' E 015°08'7 9.1
2015-Jul-31 21:33N 36°29' E 014°59'9 9.1
2015-Jul-31 20:33N 36°25' E 014°48'9 9.2
2015-Jul-31 19:33N 36°25' E 014°37'9 9.3
2015-Jul-31 18:34N 36°28' E 014°26'9 9.3
2015-Jul-31 17:33N 36°30' E 014°15'9 9.3
2015-Jul-31 16:33N 36°33' E 014°04'9 9.3
2015-Jul-31 15:33N 36°36' E 013°53'10 9.8
2015-Jul-31 14:33N 36°39' E 013°41'1111.6
2015-Jul-31 13:33N 36°42' E 013°28'9 9.4
2015-Jul-31 12:33N 36°45' E 013°16'9 9.3
2015-Jul-31 11:33N 36°47' E 013°05'9 9.1
2015-Jul-31 10:33N 36°51' E 012°55'9 9.0
2015-Jul-31 09:34N 36°53' E 012°44'9 8.8
2015-Jul-31 08:33N 36°56' E 012°33'9 8.9
2015-Jul-31 07:33N 36°59' E 012°23'8 8.4
2015-Jul-31 06:34N 37°01' E 012°13'8 8.3
2015-Jul-31 05:34N 37°04' E 012°03'8 8.3
2015-Jul-31 04:34N 37°06' E 011°53'8 8.3
2015-Jul-31 03:33N 37°09' E 011°43'9 8.5
2015-Jul-31 02:33N 37°12' E 011°33'9 8.6
2015-Jul-31 01:33N 37°16' E 011°23'9 9.4
2015-Jul-31 00:33N 37°21' E 011°13'10 9.6
2015-Jul-30 23:33N 37°25' E 011°02'10 9.9
2015-Jul-30 22:33N 37°28' E 010°51'1010.1
2015-Jul-30 21:34N 37°32' E 010°39'10 9.9
2015-Jul-30 20:34N 37°34' E 010°27'10 9.7
2015-Jul-30 19:34N 37°34' E 010°14'9 9.4
2015-Jul-30 18:33N 37°34' E 010°03'9 9.3
2015-Jul-30 17:33N 37°32' E 009°51'9 9.1
2015-Jul-30 16:33N 37°29' E 009°40'9 9.4
2015-Jul-30 15:33N 37°26' E 009°29'1212.0
2015-Jul-30 14:33N 37°23' E 009°14'1212.0
2015-Jul-30 13:33N 37°19' E 008°60'1211.6
2015-Jul-30 12:33N 37°18' E 008°45'1111.4
2015-Jul-30 11:33N 37°18' E 008°31'1211.7
2015-Jul-30 10:33N 37°18' E 008°16'  
2015-Jul-28 00:26N 36°50' E 005°50'0 0.0
2015-Jul-27 21:33N 36°50' E 005°50'0 0.0
2015-Jul-27 20:32N 36°50' E 005°50'0 0.0
2015-Jul-27 19:32N 36°50' E 005°50'0 0.0
2015-Jul-27 18:11N 36°50' E 005°50'0 0.0
2015-Jul-27 17:29N 36°50' E 005°50'0 0.0
2015-Jul-27 16:14N 36°50' E 005°50'0 0.0
2015-Jul-27 14:32N 36°50' E 005°50'1 0.6
2015-Jul-27 13:33N 36°50' E 005°50'1110.0
2015-Jul-27 12:28N 36°58' E 005°41'2310.8
2015-Jul-27 10:18N 37°02' E 005°12'2111.5
2015-Jul-27 08:30N 37°02' E 004°47'4912.3
2015-Jul-27 04:29N 37°02' E 003°45'1212.5
2015-Jul-27 03:32N 37°02' E 003°30'1212.1
2015-Jul-27 02:33N 37°02' E 003°15'1212.1
2015-Jul-27 01:32N 37°01' E 002°60'1212.0
2015-Jul-27 00:33N 36°59' E 002°45'1212.0
2015-Jul-26 23:31N 36°56' E 002°30'1111.8
2015-Jul-26 22:33N 36°54' E 002°16'1211.9
2015-Jul-26 21:33N 36°52' E 002°02'1211.5
2015-Jul-26 20:33N 36°50' E 001°47'1111.4
2015-Jul-26 19:33N 36°48' E 001°33'1110.8
2015-Jul-26 18:32N 36°46' E 001°20'1111.2
2015-Jul-26 17:33N 36°44' E 001°06'1211.5
2015-Jul-26 16:33N 36°42' E 000°52'1211.6
2015-Jul-26 15:33N 36°39' E 000°38'1111.4
2015-Jul-26 14:33N 36°37' E 000°24'1711.4
2015-Jul-26 13:06N 36°34' E 000°04'38311.8
2015-Jul-25 04:33N 36°13' W 007°52'2711.5
2015-Jul-25 02:13N 36°19' W 008°24'811.7
2015-Jul-25 01:30N 36°21' W 008°34'1111.9
2015-Jul-25 00:33N 36°24' W 008°48'1211.8
2015-Jul-24 23:33N 36°27' W 009°02'1411.4
2015-Jul-24 22:17N 36°30' W 009°20'1011.6
2015-Jul-24 21:23N 36°37' W 009°29'1211.6
2015-Jul-24 20:22N 36°46' W 009°38'1011.6
2015-Jul-24 19:32N 36°56' W 009°41'1212.0
2015-Jul-24 18:33N 37°07' W 009°44'1312.0
2015-Jul-24 17:31N 37°19' W 009°48'1212.2
2015-Jul-24 16:32N 37°31' W 009°51'1211.9
2015-Jul-24 15:33N 37°42' W 009°55'1511.9
2015-Jul-24 14:18N 37°57' W 009°59'912.0
2015-Jul-24 13:31N 38°06' W 010°01'1212.0
2015-Jul-24 12:33N 38°18' W 010°05'1211.9
2015-Jul-24 11:33N 38°29' W 010°08'1211.9
2015-Jul-24 10:33N 38°41' W 010°11'1212.1
2015-Jul-24 09:33N 38°53' W 010°12'1212.3
2015-Jul-24 08:33N 39°05' W 010°12'1211.8
2015-Jul-24 07:33N 39°17' W 010°12'  

Dump ship's entire track history